Aviation Digital Data Service (ADDS)

Output produced by METARs form (0721 UTC 20 November 2017)
found at http://aviationweather.gov/adds/metars/
 
KRYY 200648Z AUTO 29004KT 10SM CLR 02/M03 A3019 RMK AO2 SLP944 T00221028 FZRANO
KRYY 200522Z 2006/2106 33005KT P6SM SKC 
     FM201400 05003KT P6SM SKC 
     FM201700 14005KT P6SM FEW250 
     FM210300 11003KT P6SM SCT250
       
KPUJ 200715Z AUTO 34008KT 10SM CLR 03/00 A3018 RMK AO2
KCNI 200715Z AUTO 31003KT 10SM CLR 01/M01 A3017 RMK AO2
KPDK 200653Z AUTO 29004KT 10SM CLR 01/M03 A3016 RMK AO2 SLP223 T00061028
KPDK 200522Z 2006/2106 31004KT P6SM SKC 
     FM201300 04003KT P6SM SKC 
     FM201700 13005KT P6SM FEW250 
     FM210300 11003KT P6SM SCT250
       
KRMG 200653Z AUTO 32006KT 10SM CLR 02/M03 A3021 RMK AO2 SLP228 T00221028
KATL 200652Z 32008KT 10SM CLR 02/M02 A3016 RMK AO2 SLP216 T00221022
KATL 200522Z 2006/2112 32007KT P6SM SKC 
     FM201300 02004KT P6SM SKC 
     FM201700 15006KT P6SM FEW250 
     FM210300 11005KT P6SM SCT250 
     FM210600 10004KT P6SM BKN030 
     FM211000 11005KT P6SM BKN010 BKN030
       
KFFC 200653Z AUTO 32006KT 9SM -SN CLR 03/M02 A3018 RMK AO2 SLP222 P0000 T00281022 $
KGAD 200656Z AUTO 00000KT 10SM CLR M02/M02 A3025 RMK AO2 SLP250 T10221022 FZRANO
KCHA 200653Z AUTO 01007KT 10SM CLR 03/M04 A3023 RMK AO2 SLP238 T00281044 $
KCHA 200525Z 2006/2106 35003KT P6SM SKC 
     FM201700 16004KT P6SM FEW250
       
KDNN 200715Z AUTO 34008KT 10SM CLR 01/M01 A3022 RMK AO2
KAHN 200651Z AUTO 00000KT 10SM CLR 00/M01 A3013 RMK AO2 SLP208 T00001011
KAHN 200522Z 2006/2106 31004KT P6SM SKC 
     FM201300 05003KT P6SM SKC 
     FM201700 12005KT P6SM FEW250 
     FM210300 10003KT P6SM SCT250
       
KLZU 200656Z 26004KT 10SM CLR 01/M02 RMK AO2 SLPNO T00111017 FZRANO $